sensor_id;sensor_type;location;lat;lon;timestamp;temperature;humidity
57552;DHT22;43379;48.160;14.036;2023-02-13T00:01:42;3.80;99.90
57552;DHT22;43379;48.160;14.036;2023-02-13T00:04:07;3.80;99.90
57552;DHT22;43379;48.160;14.036;2023-02-13T00:06:33;3.80;99.90
57552;DHT22;43379;48.160;14.036;2023-02-13T00:08:59;3.80;99.90
57552;DHT22;43379;48.160;14.036;2023-02-13T00:11:24;3.80;99.90
57552;DHT22;43379;48.160;14.036;2023-02-13T00:13:50;3.80;99.90
57552;DHT22;43379;48.160;14.036;2023-02-13T00:16:15;3.70;99.90
57552;DHT22;43379;48.160;14.036;2023-02-13T00:18:41;3.80;99.90
57552;DHT22;43379;48.160;14.036;2023-02-13T00:21:10;3.80;99.90
57552;DHT22;43379;48.160;14.036;2023-02-13T00:23:36;3.80;99.90
57552;DHT22;43379;48.160;14.036;2023-02-13T00:26:20;3.80;99.90
57552;DHT22;43379;48.160;14.036;2023-02-13T00:28:46;3.80;99.90
57552;DHT22;43379;48.160;14.036;2023-02-13T00:31:14;3.80;99.90
57552;DHT22;43379;48.160;14.036;2023-02-13T00:33:40;3.90;99.90
57552;DHT22;43379;48.160;14.036;2023-02-13T00:36:08;3.90;99.90
57552;DHT22;43379;48.160;14.036;2023-02-13T00:38:36;3.90;99.90
57552;DHT22;43379;48.160;14.036;2023-02-13T00:41:02;3.90;99.90
57552;DHT22;43379;48.160;14.036;2023-02-13T00:43:28;3.90;99.90
57552;DHT22;43379;48.160;14.036;2023-02-13T00:45:54;3.80;99.90
57552;DHT22;43379;48.160;14.036;2023-02-13T00:48:19;3.80;99.90
57552;DHT22;43379;48.160;14.036;2023-02-13T00:50:46;3.90;99.90
57552;DHT22;43379;48.160;14.036;2023-02-13T00:53:12;3.90;99.90
57552;DHT22;43379;48.160;14.036;2023-02-13T00:55:38;3.90;99.90
57552;DHT22;43379;48.160;14.036;2023-02-13T00:58:04;3.90;99.90
57552;DHT22;43379;48.160;14.036;2023-02-13T01:00:29;4.00;99.90
57552;DHT22;43379;48.160;14.036;2023-02-13T01:02:55;3.90;99.90
57552;DHT22;43379;48.160;14.036;2023-02-13T01:05:21;3.90;99.90
57552;DHT22;43379;48.160;14.036;2023-02-13T01:07:46;3.80;99.90
57552;DHT22;43379;48.160;14.036;2023-02-13T01:10:12;3.90;99.90
57552;DHT22;43379;48.160;14.036;2023-02-13T01:12:37;3.80;99.90
57552;DHT22;43379;48.160;14.036;2023-02-13T01:15:04;3.90;99.90
57552;DHT22;43379;48.160;14.036;2023-02-13T01:17:30;3.80;99.90
57552;DHT22;43379;48.160;14.036;2023-02-13T01:19:55;3.90;99.90
57552;DHT22;43379;48.160;14.036;2023-02-13T01:22:21;3.90;99.90
57552;DHT22;43379;48.160;14.036;2023-02-13T01:24:47;3.90;99.90
57552;DHT22;43379;48.160;14.036;2023-02-13T01:27:12;3.90;99.90
57552;DHT22;43379;48.160;14.036;2023-02-13T01:29:38;4.00;99.90
57552;DHT22;43379;48.160;14.036;2023-02-13T01:32:04;4.00;99.90
57552;DHT22;43379;48.160;14.036;2023-02-13T01:34:33;4.00;99.90
57552;DHT22;43379;48.160;14.036;2023-02-13T01:36:59;4.00;99.90
57552;DHT22;43379;48.160;14.036;2023-02-13T01:39:25;4.00;99.90
57552;DHT22;43379;48.160;14.036;2023-02-13T01:41:50;3.90;99.90
57552;DHT22;43379;48.160;14.036;2023-02-13T01:47:19;3.80;99.90
57552;DHT22;43379;48.160;14.036;2023-02-13T01:49:47;3.80;99.90
57552;DHT22;43379;48.160;14.036;2023-02-13T01:52:13;3.80;99.90
57552;DHT22;43379;48.160;14.036;2023-02-13T01:54:40;3.80;99.90
57552;DHT22;43379;48.160;14.036;2023-02-13T01:57:14;3.80;99.90
57552;DHT22;43379;48.160;14.036;2023-02-13T02:02:15;3.80;99.90
57552;DHT22;43379;48.160;14.036;2023-02-13T02:04:42;3.70;99.90
57552;DHT22;43379;48.160;14.036;2023-02-13T02:07:18;3.70;99.90
57552;DHT22;43379;48.160;14.036;2023-02-13T02:09:45;3.80;99.90
57552;DHT22;43379;48.160;14.036;2023-02-13T02:12:26;3.70;99.90
57552;DHT22;43379;48.160;14.036;2023-02-13T02:14:55;3.60;99.90
57552;DHT22;43379;48.160;14.036;2023-02-13T02:17:23;3.60;99.90
57552;DHT22;43379;48.160;14.036;2023-02-13T02:23:02;3.60;99.90
57552;DHT22;43379;48.160;14.036;2023-02-13T02:25:59;3.50;99.90
57552;DHT22;43379;48.160;14.036;2023-02-13T02:31:21;3.50;99.90
57552;DHT22;43379;48.160;14.036;2023-02-13T02:34:16;3.50;99.90
57552;DHT22;43379;48.160;14.036;2023-02-13T02:39:31;3.50;99.90
57552;DHT22;43379;48.160;14.036;2023-02-13T02:45:43;3.60;99.90
57552;DHT22;43379;48.160;14.036;2023-02-13T02:51:13;3.60;99.90
57552;DHT22;43379;48.160;14.036;2023-02-13T02:53:44;3.60;99.90
57552;DHT22;43379;48.160;14.036;2023-02-13T02:56:19;3.60;99.90
57552;DHT22;43379;48.160;14.036;2023-02-13T02:59:02;3.60;99.90
57552;DHT22;43379;48.160;14.036;2023-02-13T03:01:48;3.50;99.90
57552;DHT22;43379;48.160;14.036;2023-02-13T03:04:50;3.60;99.90
57552;DHT22;43379;48.160;14.036;2023-02-13T03:07:36;3.60;99.90
57552;DHT22;43379;48.160;14.036;2023-02-13T03:10:12;3.60;99.90
57552;DHT22;43379;48.160;14.036;2023-02-13T03:13:14;3.60;99.90
57552;DHT22;43379;48.160;14.036;2023-02-13T03:15:56;3.60;99.90
57552;DHT22;43379;48.160;14.036;2023-02-13T03:18:54;3.60;99.90
57552;DHT22;43379;48.160;14.036;2023-02-13T03:22:20;3.60;99.90
57552;DHT22;43379;48.160;14.036;2023-02-13T03:25:11;3.70;99.90
57552;DHT22;43379;48.160;14.036;2023-02-13T03:28:05;3.60;99.90
57552;DHT22;43379;48.160;14.036;2023-02-13T03:34:07;3.60;99.90
57552;DHT22;43379;48.160;14.036;2023-02-13T03:45:13;3.40;99.90
57552;DHT22;43379;48.160;14.036;2023-02-13T03:48:01;3.40;99.90
57552;DHT22;43379;48.160;14.036;2023-02-13T03:50:37;3.40;99.90
57552;DHT22;43379;48.160;14.036;2023-02-13T03:53:10;3.40;99.90
57552;DHT22;43379;48.160;14.036;2023-02-13T03:55:41;3.30;99.90
57552;DHT22;43379;48.160;14.036;2023-02-13T03:58:36;3.40;99.90
57552;DHT22;43379;48.160;14.036;2023-02-13T04:01:30;3.30;99.90
57552;DHT22;43379;48.160;14.036;2023-02-13T04:09:09;3.30;99.90
57552;DHT22;43379;48.160;14.036;2023-02-13T04:11:52;3.30;99.90
57552;DHT22;43379;48.160;14.036;2023-02-13T04:14:26;3.30;99.90
57552;DHT22;43379;48.160;14.036;2023-02-13T04:17:01;3.30;99.90
57552;DHT22;43379;48.160;14.036;2023-02-13T04:19:28;3.30;99.90
57552;DHT22;43379;48.160;14.036;2023-02-13T04:21:56;3.20;99.90
57552;DHT22;43379;48.160;14.036;2023-02-13T04:24:23;3.20;99.90
57552;DHT22;43379;48.160;14.036;2023-02-13T04:26:48;3.30;99.90
57552;DHT22;43379;48.160;14.036;2023-02-13T04:29:14;3.30;99.90
57552;DHT22;43379;48.160;14.036;2023-02-13T04:31:40;3.20;99.90
57552;DHT22;43379;48.160;14.036;2023-02-13T04:34:05;3.20;99.90
57552;DHT22;43379;48.160;14.036;2023-02-13T04:36:31;3.20;99.90
57552;DHT22;43379;48.160;14.036;2023-02-13T04:38:57;3.20;99.90
57552;DHT22;43379;48.160;14.036;2023-02-13T04:41:22;3.20;99.90
57552;DHT22;43379;48.160;14.036;2023-02-13T04:43:48;3.10;99.90
57552;DHT22;43379;48.160;14.036;2023-02-13T04:46:16;3.10;99.90
57552;DHT22;43379;48.160;14.036;2023-02-13T04:48:41;3.10;99.90
57552;DHT22;43379;48.160;14.036;2023-02-13T04:51:07;3.10;99.90
57552;DHT22;43379;48.160;14.036;2023-02-13T04:53:33;3.10;99.90
57552;DHT22;43379;48.160;14.036;2023-02-13T04:55:58;3.10;99.90
57552;DHT22;43379;48.160;14.036;2023-02-13T04:58:24;3.00;99.90
57552;DHT22;43379;48.160;14.036;2023-02-13T05:00:50;3.00;99.90
57552;DHT22;43379;48.160;14.036;2023-02-13T05:03:15;3.00;99.90
57552;DHT22;43379;48.160;14.036;2023-02-13T05:05:41;3.00;99.90
57552;DHT22;43379;48.160;14.036;2023-02-13T05:08:07;3.00;99.90
57552;DHT22;43379;48.160;14.036;2023-02-13T05:10:33;3.00;99.90
57552;DHT22;43379;48.160;14.036;2023-02-13T05:12:59;2.90;99.90
57552;DHT22;43379;48.160;14.036;2023-02-13T05:15:25;2.80;99.90
57552;DHT22;43379;48.160;14.036;2023-02-13T05:17:51;2.80;99.90
57552;DHT22;43379;48.160;14.036;2023-02-13T05:20:17;2.90;99.90
57552;DHT22;43379;48.160;14.036;2023-02-13T05:23:04;2.80;99.90
57552;DHT22;43379;48.160;14.036;2023-02-13T05:25:48;2.90;99.90
57552;DHT22;43379;48.160;14.036;2023-02-13T05:28:14;2.80;99.90
57552;DHT22;43379;48.160;14.036;2023-02-13T05:30:58;2.80;99.90
57552;DHT22;43379;48.160;14.036;2023-02-13T05:33:24;2.70;99.90
57552;DHT22;43379;48.160;14.036;2023-02-13T05:35:50;2.70;99.90
57552;DHT22;43379;48.160;14.036;2023-02-13T05:38:15;2.80;99.90
57552;DHT22;43379;48.160;14.036;2023-02-13T05:40:41;2.70;99.90
57552;DHT22;43379;48.160;14.036;2023-02-13T05:43:07;2.80;99.90
57552;DHT22;43379;48.160;14.036;2023-02-13T05:45:32;2.70;99.90
57552;DHT22;43379;48.160;14.036;2023-02-13T05:47:58;2.70;99.90
57552;DHT22;43379;48.160;14.036;2023-02-13T05:50:23;2.70;99.90
57552;DHT22;43379;48.160;14.036;2023-02-13T05:52:49;2.70;99.90
57552;DHT22;43379;48.160;14.036;2023-02-13T05:55:15;2.70;99.90
57552;DHT22;43379;48.160;14.036;2023-02-13T05:57:40;2.80;99.90
57552;DHT22;43379;48.160;14.036;2023-02-13T06:00:06;2.70;99.90
57552;DHT22;43379;48.160;14.036;2023-02-13T06:02:32;2.80;99.90
57552;DHT22;43379;48.160;14.036;2023-02-13T06:04:58;2.70;99.90
57552;DHT22;43379;48.160;14.036;2023-02-13T06:07:23;2.80;99.90
57552;DHT22;43379;48.160;14.036;2023-02-13T06:09:49;2.80;99.90
57552;DHT22;43379;48.160;14.036;2023-02-13T06:12:14;2.70;99.90
57552;DHT22;43379;48.160;14.036;2023-02-13T06:14:40;2.70;99.90
57552;DHT22;43379;48.160;14.036;2023-02-13T06:17:06;2.80;99.90
57552;DHT22;43379;48.160;14.036;2023-02-13T06:19:31;2.70;99.90
57552;DHT22;43379;48.160;14.036;2023-02-13T06:21:57;2.80;99.90
57552;DHT22;43379;48.160;14.036;2023-02-13T06:24:23;2.80;99.90
57552;DHT22;43379;48.160;14.036;2023-02-13T06:26:48;2.70;99.90
57552;DHT22;43379;48.160;14.036;2023-02-13T06:29:14;2.60;99.90
57552;DHT22;43379;48.160;14.036;2023-02-13T06:31:40;2.60;99.90
57552;DHT22;43379;48.160;14.036;2023-02-13T06:34:05;2.60;99.90
57552;DHT22;43379;48.160;14.036;2023-02-13T06:36:31;2.70;99.90
57552;DHT22;43379;48.160;14.036;2023-02-13T06:38:56;2.70;99.90
57552;DHT22;43379;48.160;14.036;2023-02-13T06:41:22;2.80;99.90
57552;DHT22;43379;48.160;14.036;2023-02-13T06:43:48;2.80;99.90
57552;DHT22;43379;48.160;14.036;2023-02-13T06:46:13;2.80;99.90
57552;DHT22;43379;48.160;14.036;2023-02-13T06:48:39;2.90;99.90
57552;DHT22;43379;48.160;14.036;2023-02-13T06:51:05;2.90;99.90
57552;DHT22;43379;48.160;14.036;2023-02-13T06:53:30;2.90;99.90
57552;DHT22;43379;48.160;14.036;2023-02-13T06:55:56;2.90;99.90
57552;DHT22;43379;48.160;14.036;2023-02-13T06:58:23;2.80;99.90
57552;DHT22;43379;48.160;14.036;2023-02-13T07:00:50;2.80;99.90
57552;DHT22;43379;48.160;14.036;2023-02-13T07:03:16;2.70;99.90
57552;DHT22;43379;48.160;14.036;2023-02-13T07:05:43;2.60;99.90
57552;DHT22;43379;48.160;14.036;2023-02-13T07:08:10;2.70;99.90
57552;DHT22;43379;48.160;14.036;2023-02-13T07:10:40;2.60;99.90
57552;DHT22;43379;48.160;14.036;2023-02-13T07:13:07;2.70;99.90
57552;DHT22;43379;48.160;14.036;2023-02-13T07:15:34;2.60;99.90
57552;DHT22;43379;48.160;14.036;2023-02-13T07:18:00;2.60;99.90
57552;DHT22;43379;48.160;14.036;2023-02-13T07:20:26;2.60;99.90
57552;DHT22;43379;48.160;14.036;2023-02-13T07:22:52;2.70;99.90
57552;DHT22;43379;48.160;14.036;2023-02-13T07:25:18;2.70;99.90
57552;DHT22;43379;48.160;14.036;2023-02-13T07:27:44;2.70;99.90
57552;DHT22;43379;48.160;14.036;2023-02-13T07:30:10;2.70;99.90
57552;DHT22;43379;48.160;14.036;2023-02-13T07:32:36;2.80;99.90
57552;DHT22;43379;48.160;14.036;2023-02-13T07:35:02;2.80;99.90
57552;DHT22;43379;48.160;14.036;2023-02-13T07:37:29;2.90;99.90
57552;DHT22;43379;48.160;14.036;2023-02-13T07:39:55;2.90;99.90
57552;DHT22;43379;48.160;14.036;2023-02-13T07:42:20;2.80;99.90
57552;DHT22;43379;48.160;14.036;2023-02-13T07:44:46;2.90;99.90
57552;DHT22;43379;48.160;14.036;2023-02-13T07:47:12;2.80;99.90
57552;DHT22;43379;48.160;14.036;2023-02-13T07:49:37;2.70;99.90
57552;DHT22;43379;48.160;14.036;2023-02-13T07:52:03;2.70;99.90
57552;DHT22;43379;48.160;14.036;2023-02-13T07:54:29;2.70;99.90
57552;DHT22;43379;48.160;14.036;2023-02-13T07:56:55;2.80;99.90
57552;DHT22;43379;48.160;14.036;2023-02-13T07:59:21;2.80;99.90
57552;DHT22;43379;48.160;14.036;2023-02-13T08:01:46;2.80;99.90
57552;DHT22;43379;48.160;14.036;2023-02-13T08:04:12;2.70;99.90
57552;DHT22;43379;48.160;14.036;2023-02-13T08:06:39;2.60;99.90
57552;DHT22;43379;48.160;14.036;2023-02-13T08:09:05;2.60;99.90
57552;DHT22;43379;48.160;14.036;2023-02-13T08:11:49;2.60;99.90
57552;DHT22;43379;48.160;14.036;2023-02-13T08:14:25;2.50;99.90
57552;DHT22;43379;48.160;14.036;2023-02-13T08:16:52;2.60;99.90
57552;DHT22;43379;48.160;14.036;2023-02-13T08:19:19;2.50;99.90
57552;DHT22;43379;48.160;14.036;2023-02-13T08:21:45;2.60;99.90
57552;DHT22;43379;48.160;14.036;2023-02-13T08:24:11;2.60;99.90
57552;DHT22;43379;48.160;14.036;2023-02-13T08:26:37;2.60;99.90
57552;DHT22;43379;48.160;14.036;2023-02-13T08:29:04;2.70;99.90
57552;DHT22;43379;48.160;14.036;2023-02-13T08:31:30;2.70;99.90
57552;DHT22;43379;48.160;14.036;2023-02-13T08:33:56;2.70;99.90
57552;DHT22;43379;48.160;14.036;2023-02-13T08:36:22;2.70;99.90
57552;DHT22;43379;48.160;14.036;2023-02-13T08:38:48;2.70;99.90
57552;DHT22;43379;48.160;14.036;2023-02-13T08:41:14;2.70;99.90
57552;DHT22;43379;48.160;14.036;2023-02-13T08:43:42;2.70;99.90
57552;DHT22;43379;48.160;14.036;2023-02-13T08:46:08;2.70;99.90
57552;DHT22;43379;48.160;14.036;2023-02-13T08:48:33;2.70;99.90
57552;DHT22;43379;48.160;14.036;2023-02-13T08:50:59;2.70;99.90
57552;DHT22;43379;48.160;14.036;2023-02-13T08:53:25;2.80;99.90
57552;DHT22;43379;48.160;14.036;2023-02-13T08:55:52;2.90;99.90
57552;DHT22;43379;48.160;14.036;2023-02-13T08:58:18;3.00;99.90
57552;DHT22;43379;48.160;14.036;2023-02-13T09:00:44;2.90;99.90
57552;DHT22;43379;48.160;14.036;2023-02-13T09:03:09;2.90;99.90
57552;DHT22;43379;48.160;14.036;2023-02-13T09:05:35;3.00;99.90
57552;DHT22;43379;48.160;14.036;2023-02-13T09:08:01;3.00;99.90
57552;DHT22;43379;48.160;14.036;2023-02-13T09:10:28;3.00;99.90
57552;DHT22;43379;48.160;14.036;2023-02-13T09:12:54;2.90;99.90
57552;DHT22;43379;48.160;14.036;2023-02-13T09:15:20;2.90;99.90
57552;DHT22;43379;48.160;14.036;2023-02-13T09:17:45;2.90;99.90
57552;DHT22;43379;48.160;14.036;2023-02-13T09:20:12;3.00;99.90
57552;DHT22;43379;48.160;14.036;2023-02-13T09:22:39;3.10;99.90
57552;DHT22;43379;48.160;14.036;2023-02-13T09:25:05;3.30;99.90
57552;DHT22;43379;48.160;14.036;2023-02-13T09:27:32;3.30;99.90
57552;DHT22;43379;48.160;14.036;2023-02-13T09:29:58;3.40;99.90
57552;DHT22;43379;48.160;14.036;2023-02-13T09:32:24;3.50;99.90
57552;DHT22;43379;48.160;14.036;2023-02-13T09:34:50;3.50;99.90
57552;DHT22;43379;48.160;14.036;2023-02-13T09:37:16;3.60;99.90
57552;DHT22;43379;48.160;14.036;2023-02-13T09:39:41;3.60;99.90
57552;DHT22;43379;48.160;14.036;2023-02-13T09:42:17;3.80;99.90
57552;DHT22;43379;48.160;14.036;2023-02-13T09:44:45;3.80;99.90
57552;DHT22;43379;48.160;14.036;2023-02-13T09:49:49;3.90;99.90
57552;DHT22;43379;48.160;14.036;2023-02-13T09:52:17;3.80;99.90
57552;DHT22;43379;48.160;14.036;2023-02-13T09:54:42;3.80;99.90
57552;DHT22;43379;48.160;14.036;2023-02-13T09:57:35;4.00;99.90
57552;DHT22;43379;48.160;14.036;2023-02-13T10:00:25;3.90;99.90
57552;DHT22;43379;48.160;14.036;2023-02-13T10:11:16;4.40;99.90
57552;DHT22;43379;48.160;14.036;2023-02-13T10:17:24;4.60;99.90
57552;DHT22;43379;48.160;14.036;2023-02-13T10:19:47;4.60;99.90
57552;DHT22;43379;48.160;14.036;2023-02-13T10:22:19;4.70;99.90
57552;DHT22;43379;48.160;14.036;2023-02-13T10:27:26;4.80;99.90
57552;DHT22;43379;48.160;14.036;2023-02-13T10:30:35;4.90;99.90
57552;DHT22;43379;48.160;14.036;2023-02-13T10:33:11;4.80;99.90
57552;DHT22;43379;48.160;14.036;2023-02-13T10:44:36;5.10;99.90
57552;DHT22;43379;48.160;14.036;2023-02-13T10:52:49;5.10;99.90
57552;DHT22;43379;48.160;14.036;2023-02-13T10:55:31;5.20;99.90
57552;DHT22;43379;48.160;14.036;2023-02-13T10:58:26;5.20;99.90
57552;DHT22;43379;48.160;14.036;2023-02-13T11:01:07;5.30;99.90
57552;DHT22;43379;48.160;14.036;2023-02-13T11:03:33;5.60;99.90
57552;DHT22;43379;48.160;14.036;2023-02-13T11:05:59;5.60;99.90
57552;DHT22;43379;48.160;14.036;2023-02-13T11:08:33;5.70;99.90
57552;DHT22;43379;48.160;14.036;2023-02-13T11:10:59;5.80;99.90
57552;DHT22;43379;48.160;14.036;2023-02-13T11:13:27;5.90;99.90
57552;DHT22;43379;48.160;14.036;2023-02-13T11:16:06;6.10;99.90
57552;DHT22;43379;48.160;14.036;2023-02-13T11:18:37;6.40;99.90
57552;DHT22;43379;48.160;14.036;2023-02-13T11:21:08;6.50;99.90
57552;DHT22;43379;48.160;14.036;2023-02-13T11:23:41;6.70;99.90
57552;DHT22;43379;48.160;14.036;2023-02-13T11:26:34;6.90;99.90
57552;DHT22;43379;48.160;14.036;2023-02-13T11:29:05;7.00;99.90
57552;DHT22;43379;48.160;14.036;2023-02-13T11:31:33;7.30;99.90
57552;DHT22;43379;48.160;14.036;2023-02-13T11:34:26;7.40;99.90
57552;DHT22;43379;48.160;14.036;2023-02-13T11:36:54;7.70;99.90
57552;DHT22;43379;48.160;14.036;2023-02-13T11:39:31;7.90;99.90
57552;DHT22;43379;48.160;14.036;2023-02-13T11:41:57;7.90;99.90
57552;DHT22;43379;48.160;14.036;2023-02-13T11:44:24;8.00;99.90
57552;DHT22;43379;48.160;14.036;2023-02-13T11:46:52;8.20;99.90
57552;DHT22;43379;48.160;14.036;2023-02-13T11:49:19;8.20;99.90
57552;DHT22;43379;48.160;14.036;2023-02-13T11:51:53;8.40;99.90
57552;DHT22;43379;48.160;14.036;2023-02-13T11:57:20;8.70;99.90
57552;DHT22;43379;48.160;14.036;2023-02-13T11:59:48;8.90;99.90
57552;DHT22;43379;48.160;14.036;2023-02-13T12:02:24;9.00;99.90
57552;DHT22;43379;48.160;14.036;2023-02-13T12:04:52;9.20;99.90
57552;DHT22;43379;48.160;14.036;2023-02-13T12:07:28;9.40;99.90
57552;DHT22;43379;48.160;14.036;2023-02-13T12:10:17;9.60;99.90
57552;DHT22;43379;48.160;14.036;2023-02-13T12:12:58;9.70;99.90
57552;DHT22;43379;48.160;14.036;2023-02-13T12:20:33;10.10;99.90
57552;DHT22;43379;48.160;14.036;2023-02-13T12:30:49;10.50;99.90
57552;DHT22;43379;48.160;14.036;2023-02-13T12:47:30;10.70;99.90
57552;DHT22;43379;48.160;14.036;2023-02-13T12:50:07;10.70;99.90
57552;DHT22;43379;48.160;14.036;2023-02-13T13:03:44;10.70;99.90
57552;DHT22;43379;48.160;14.036;2023-02-13T13:06:16;10.80;99.90
57552;DHT22;43379;48.160;14.036;2023-02-13T13:09:04;10.80;99.90
57552;DHT22;43379;48.160;14.036;2023-02-13T13:20:54;11.10;99.90
57552;DHT22;43379;48.160;14.036;2023-02-13T13:23:39;11.10;99.90
57552;DHT22;43379;48.160;14.036;2023-02-13T13:26:21;11.00;99.90
57552;DHT22;43379;48.160;14.036;2023-02-13T13:28:53;10.90;99.90
57552;DHT22;43379;48.160;14.036;2023-02-13T13:31:21;10.80;99.90
57552;DHT22;43379;48.160;14.036;2023-02-13T13:33:50;10.50;99.90
57552;DHT22;43379;48.160;14.036;2023-02-13T13:40:08;10.30;99.90
57552;DHT22;43379;48.160;14.036;2023-02-13T13:44:53;10.20;99.90
57552;DHT22;43379;48.160;14.036;2023-02-13T13:50:21;10.20;99.90
57552;DHT22;43379;48.160;14.036;2023-02-13T13:53:15;10.30;99.90
57552;DHT22;43379;48.160;14.036;2023-02-13T14:01:18;10.30;99.90
57552;DHT22;43379;48.160;14.036;2023-02-13T14:03:54;10.30;99.90
57552;DHT22;43379;48.160;14.036;2023-02-13T14:06:26;10.30;99.90
57552;DHT22;43379;48.160;14.036;2023-02-13T14:08:55;10.20;99.90
57552;DHT22;43379;48.160;14.036;2023-02-13T14:11:36;10.10;99.90
57552;DHT22;43379;48.160;14.036;2023-02-13T14:16:55;9.90;99.90
57552;DHT22;43379;48.160;14.036;2023-02-13T14:22:05;9.80;99.90
57552;DHT22;43379;48.160;14.036;2023-02-13T14:24:40;9.90;99.90
57552;DHT22;43379;48.160;14.036;2023-02-13T14:27:21;9.90;99.90
57552;DHT22;43379;48.160;14.036;2023-02-13T14:29:47;9.90;99.90
57552;DHT22;43379;48.160;14.036;2023-02-13T14:34:56;9.90;99.90
57552;DHT22;43379;48.160;14.036;2023-02-13T14:37:36;10.00;99.90
57552;DHT22;43379;48.160;14.036;2023-02-13T14:43:00;10.00;99.90
57552;DHT22;43379;48.160;14.036;2023-02-13T14:45:45;9.80;99.90
57552;DHT22;43379;48.160;14.036;2023-02-13T14:48:13;9.70;99.90
57552;DHT22;43379;48.160;14.036;2023-02-13T14:50:49;9.40;99.90
57552;DHT22;43379;48.160;14.036;2023-02-13T14:53:27;9.40;99.90
57552;DHT22;43379;48.160;14.036;2023-02-13T14:56:20;9.50;99.90
57552;DHT22;43379;48.160;14.036;2023-02-13T14:58:53;9.50;99.90
57552;DHT22;43379;48.160;14.036;2023-02-13T15:03:58;9.50;99.90
57552;DHT22;43379;48.160;14.036;2023-02-13T15:06:33;9.50;99.90
57552;DHT22;43379;48.160;14.036;2023-02-13T15:09:03;9.40;99.90
57552;DHT22;43379;48.160;14.036;2023-02-13T15:11:39;9.40;99.90
57552;DHT22;43379;48.160;14.036;2023-02-13T15:14:39;9.30;99.90
57552;DHT22;43379;48.160;14.036;2023-02-13T15:19:41;9.30;99.90
57552;DHT22;43379;48.160;14.036;2023-02-13T15:22:18;9.30;99.90
57552;DHT22;43379;48.160;14.036;2023-02-13T15:24:46;9.20;99.90
57552;DHT22;43379;48.160;14.036;2023-02-13T15:27:42;9.20;99.90
57552;DHT22;43379;48.160;14.036;2023-02-13T15:32:44;9.10;99.90
57552;DHT22;43379;48.160;14.036;2023-02-13T15:35:24;9.00;99.90
57552;DHT22;43379;48.160;14.036;2023-02-13T15:37:50;8.90;99.90
57552;DHT22;43379;48.160;14.036;2023-02-13T15:40:29;8.80;99.90
57552;DHT22;43379;48.160;14.036;2023-02-13T15:42:56;8.80;99.90
57552;DHT22;43379;48.160;14.036;2023-02-13T15:45:24;8.80;99.90
57552;DHT22;43379;48.160;14.036;2023-02-13T15:47:51;8.60;99.90
57552;DHT22;43379;48.160;14.036;2023-02-13T15:50:32;8.60;99.90
57552;DHT22;43379;48.160;14.036;2023-02-13T15:53:00;8.50;99.90
57552;DHT22;43379;48.160;14.036;2023-02-13T15:55:30;8.40;99.90
57552;DHT22;43379;48.160;14.036;2023-02-13T15:57:58;8.40;99.90
57552;DHT22;43379;48.160;14.036;2023-02-13T16:00:30;8.30;99.90
57552;DHT22;43379;48.160;14.036;2023-02-13T16:02:57;8.20;99.90
57552;DHT22;43379;48.160;14.036;2023-02-13T16:05:26;8.20;99.90
57552;DHT22;43379;48.160;14.036;2023-02-13T16:07:57;8.10;99.90
57552;DHT22;43379;48.160;14.036;2023-02-13T16:10:29;8.00;99.90
57552;DHT22;43379;48.160;14.036;2023-02-13T16:12:57;8.00;99.90
57552;DHT22;43379;48.160;14.036;2023-02-13T16:15:27;7.90;99.90
57552;DHT22;43379;48.160;14.036;2023-02-13T16:17:54;7.90;99.90
57552;DHT22;43379;48.160;14.036;2023-02-13T16:20:22;7.80;99.90
57552;DHT22;43379;48.160;14.036;2023-02-13T16:23:02;7.70;99.90
57552;DHT22;43379;48.160;14.036;2023-02-13T16:25:39;7.70;99.90
57552;DHT22;43379;48.160;14.036;2023-02-13T16:28:20;7.60;99.90
57552;DHT22;43379;48.160;14.036;2023-02-13T16:30:57;7.50;99.90
57552;DHT22;43379;48.160;14.036;2023-02-13T16:33:33;7.50;99.90
57552;DHT22;43379;48.160;14.036;2023-02-13T16:38:43;7.30;99.90
57552;DHT22;43379;48.160;14.036;2023-02-13T16:43:47;7.20;99.90
57552;DHT22;43379;48.160;14.036;2023-02-13T16:49:10;7.10;99.90
57552;DHT22;43379;48.160;14.036;2023-02-13T16:54:35;7.00;99.90
57552;DHT22;43379;48.160;14.036;2023-02-13T17:07:35;6.70;99.90
57552;DHT22;43379;48.160;14.036;2023-02-13T17:12:50;6.60;99.90
57552;DHT22;43379;48.160;14.036;2023-02-13T17:15:22;6.50;99.90
57552;DHT22;43379;48.160;14.036;2023-02-13T17:17:49;6.40;99.90
57552;DHT22;43379;48.160;14.036;2023-02-13T17:20:28;6.30;99.90
57552;DHT22;43379;48.160;14.036;2023-02-13T17:22:56;6.30;99.90
57552;DHT22;43379;48.160;14.036;2023-02-13T17:25:26;6.20;99.90
57552;DHT22;43379;48.160;14.036;2023-02-13T17:27:57;6.20;99.90
57552;DHT22;43379;48.160;14.036;2023-02-13T17:30:26;6.10;99.90
57552;DHT22;43379;48.160;14.036;2023-02-13T17:33:09;5.90;99.90
57552;DHT22;43379;48.160;14.036;2023-02-13T17:35:36;5.80;99.90
57552;DHT22;43379;48.160;14.036;2023-02-13T17:38:02;5.80;99.90
57552;DHT22;43379;48.160;14.036;2023-02-13T17:40:28;5.80;99.90
57552;DHT22;43379;48.160;14.036;2023-02-13T17:42:57;5.70;99.90
57552;DHT22;43379;48.160;14.036;2023-02-13T17:45:26;5.60;99.90
57552;DHT22;43379;48.160;14.036;2023-02-13T17:47:52;5.50;99.90
57552;DHT22;43379;48.160;14.036;2023-02-13T17:50:19;5.50;99.90
57552;DHT22;43379;48.160;14.036;2023-02-13T17:52:46;5.50;99.90
57552;DHT22;43379;48.160;14.036;2023-02-13T17:55:24;5.50;99.90
57552;DHT22;43379;48.160;14.036;2023-02-13T17:57:52;5.50;99.90
57552;DHT22;43379;48.160;14.036;2023-02-13T18:00:19;5.40;99.90
57552;DHT22;43379;48.160;14.036;2023-02-13T18:02:46;5.40;99.90
57552;DHT22;43379;48.160;14.036;2023-02-13T18:05:13;5.30;99.90
57552;DHT22;43379;48.160;14.036;2023-02-13T18:07:39;5.20;99.90
57552;DHT22;43379;48.160;14.036;2023-02-13T18:10:11;5.10;99.90
57552;DHT22;43379;48.160;14.036;2023-02-13T18:12:38;5.00;99.90
57552;DHT22;43379;48.160;14.036;2023-02-13T18:15:04;5.00;99.90
57552;DHT22;43379;48.160;14.036;2023-02-13T18:17:30;4.90;99.90
57552;DHT22;43379;48.160;14.036;2023-02-13T18:19:56;4.90;99.90
57552;DHT22;43379;48.160;14.036;2023-02-13T18:22:22;4.90;99.90
57552;DHT22;43379;48.160;14.036;2023-02-13T18:24:49;4.80;99.90
57552;DHT22;43379;48.160;14.036;2023-02-13T18:27:17;4.80;99.90
57552;DHT22;43379;48.160;14.036;2023-02-13T18:29:43;4.70;99.90
57552;DHT22;43379;48.160;14.036;2023-02-13T18:32:10;4.60;99.90
57552;DHT22;43379;48.160;14.036;2023-02-13T18:34:37;4.60;99.90
57552;DHT22;43379;48.160;14.036;2023-02-13T18:37:05;4.60;99.90
57552;DHT22;43379;48.160;14.036;2023-02-13T18:39:30;4.50;99.90
57552;DHT22;43379;48.160;14.036;2023-02-13T18:41:56;4.50;99.90
57552;DHT22;43379;48.160;14.036;2023-02-13T18:44:22;4.40;99.90
57552;DHT22;43379;48.160;14.036;2023-02-13T18:46:48;4.40;99.90
57552;DHT22;43379;48.160;14.036;2023-02-13T18:49:14;4.30;99.90